sensor_id;sensor_type;location;lat;lon;timestamp;pressure;altitude;pressure_sealevel;temperature;humidity
74561;BME280;62979;55.720;37.606;2022-09-09T00:01:23;100446.13;;;10.30;54.74
74561;BME280;62979;55.720;37.606;2022-09-09T00:04:03;100448.72;;;10.26;54.94
74561;BME280;62979;55.720;37.606;2022-09-09T00:06:43;100446.13;;;10.26;55.08
74561;BME280;62979;55.720;37.606;2022-09-09T00:09:17;100445.28;;;10.24;54.91
74561;BME280;62979;55.720;37.606;2022-09-09T00:11:48;100450.53;;;10.21;55.28
74561;BME280;62979;55.720;37.606;2022-09-09T00:14:25;100447.91;;;10.21;55.32
74561;BME280;62979;55.720;37.606;2022-09-09T00:17:04;100448.81;;;10.20;55.40
74561;BME280;62979;55.720;37.606;2022-09-09T00:19:41;100453.13;;;10.23;55.32
74561;BME280;62979;55.720;37.606;2022-09-09T00:22:16;100461.03;;;10.18;55.22
74561;BME280;62979;55.720;37.606;2022-09-09T00:24:46;100454.16;;;10.08;55.88
74561;BME280;62979;55.720;37.606;2022-09-09T00:27:24;100455.88;;;10.12;56.23
74561;BME280;62979;55.720;37.606;2022-09-09T00:30:01;100452.41;;;10.08;55.94
74561;BME280;62979;55.720;37.606;2022-09-09T00:32:39;100454.22;;;10.02;56.00
74561;BME280;62979;55.720;37.606;2022-09-09T00:35:16;100464.59;;;10.11;56.15
74561;BME280;62979;55.720;37.606;2022-09-09T00:37:50;100469.84;;;10.08;56.55
74561;BME280;62979;55.720;37.606;2022-09-09T00:40:27;100471.59;;;10.06;56.46
74561;BME280;62979;55.720;37.606;2022-09-09T00:43:10;100471.59;;;10.06;56.14
74561;BME280;62979;55.720;37.606;2022-09-09T00:46:11;100462.00;;;10.10;56.44
74561;BME280;62979;55.720;37.606;2022-09-09T00:48:54;100481.16;;;10.07;56.24
74561;BME280;62979;55.720;37.606;2022-09-09T00:51:41;100478.53;;;10.10;56.56
74561;BME280;62979;55.720;37.606;2022-09-09T00:54:31;100478.56;;;10.07;55.88
74561;BME280;62979;55.720;37.606;2022-09-09T00:57:28;100477.69;;;10.08;56.11
74561;BME280;62979;55.720;37.606;2022-09-09T01:00:02;100476.78;;;10.12;55.45
74561;BME280;62979;55.720;37.606;2022-09-09T01:03:04;100469.81;;;10.11;55.38
74561;BME280;62979;55.720;37.606;2022-09-09T01:05:51;100476.78;;;10.09;55.60
74561;BME280;62979;55.720;37.606;2022-09-09T01:08:43;100489.84;;;10.12;55.42
74561;BME280;62979;55.720;37.606;2022-09-09T01:11:22;100482.06;;;10.04;55.56
74561;BME280;62979;55.720;37.606;2022-09-09T01:14:00;100489.00;;;10.07;55.89
74561;BME280;62979;55.720;37.606;2022-09-09T01:16:36;100482.97;;;10.03;55.41
74561;BME280;62979;55.720;37.606;2022-09-09T01:19:07;100490.81;;;10.02;55.79
74561;BME280;62979;55.720;37.606;2022-09-09T01:21:49;100491.66;;;10.05;55.78
74561;BME280;62979;55.720;37.606;2022-09-09T01:24:26;100493.41;;;10.05;55.89
74561;BME280;62979;55.720;37.606;2022-09-09T01:27:02;100498.63;;;10.02;55.76
74561;BME280;62979;55.720;37.606;2022-09-09T01:29:33;100499.50;;;10.04;55.89
74561;BME280;62979;55.720;37.606;2022-09-09T01:32:02;100505.59;;;10.06;55.93
74561;BME280;62979;55.720;37.606;2022-09-09T01:34:50;100501.22;;;10.08;55.74
74561;BME280;62979;55.720;37.606;2022-09-09T01:37:18;100509.06;;;10.06;55.68
74561;BME280;62979;55.720;37.606;2022-09-09T01:39:45;100502.16;;;10.02;55.77
74561;BME280;62979;55.720;37.606;2022-09-09T01:42:16;100512.59;;;10.02;55.84
74561;BME280;62979;55.720;37.606;2022-09-09T01:44:44;100513.50;;;10.00;55.76
74561;BME280;62979;55.720;37.606;2022-09-09T01:47:11;100512.69;;;9.93;56.05
74561;BME280;62979;55.720;37.606;2022-09-09T01:49:38;100514.44;;;9.93;56.46
74561;BME280;62979;55.720;37.606;2022-09-09T01:52:05;100515.31;;;9.89;56.25
74561;BME280;62979;55.720;37.606;2022-09-09T01:54:34;100524.88;;;9.90;56.39
74561;BME280;62979;55.720;37.606;2022-09-09T01:57:08;100517.06;;;9.85;56.45
74561;BME280;62979;55.720;37.606;2022-09-09T01:59:50;100521.44;;;9.86;56.56
74561;BME280;62979;55.720;37.606;2022-09-09T02:02:30;100505.84;;;9.78;56.51
74561;BME280;62979;55.720;37.606;2022-09-09T02:05:11;100527.56;;;9.83;56.73
74561;BME280;62979;55.720;37.606;2022-09-09T02:07:48;100525.81;;;9.82;56.73
74561;BME280;62979;55.720;37.606;2022-09-09T02:10:21;100522.38;;;9.77;56.73
74561;BME280;62979;55.720;37.606;2022-09-09T02:13:02;100518.91;;;9.75;56.85
74561;BME280;62979;55.720;37.606;2022-09-09T02:15:41;100533.72;;;9.78;56.65
74561;BME280;62979;55.720;37.606;2022-09-09T02:18:15;100531.97;;;9.78;56.74
74561;BME280;62979;55.720;37.606;2022-09-09T02:20:51;100529.34;;;9.75;56.70
74561;BME280;62979;55.720;37.606;2022-09-09T02:23:20;100533.72;;;9.76;56.91
74561;BME280;62979;55.720;37.606;2022-09-09T02:25:47;100533.72;;;9.75;56.81
74561;BME280;62979;55.720;37.606;2022-09-09T02:28:17;100527.66;;;9.71;56.72
74561;BME280;62979;55.720;37.606;2022-09-09T02:30:50;100548.50;;;9.77;56.98
74561;BME280;62979;55.720;37.606;2022-09-09T02:33:22;100534.56;;;9.77;56.93
74561;BME280;62979;55.720;37.606;2022-09-09T02:35:53;100551.97;;;9.81;56.51
74561;BME280;62979;55.720;37.606;2022-09-09T02:38:28;100538.03;;;9.79;56.71
74561;BME280;62979;55.720;37.606;2022-09-09T02:41:00;100537.31;;;9.60;56.65
74561;BME280;62979;55.720;37.606;2022-09-09T02:43:31;100547.69;;;9.68;56.63
74561;BME280;62979;55.720;37.606;2022-09-09T02:46:04;100555.56;;;9.66;56.62
74561;BME280;62979;55.720;37.606;2022-09-09T02:48:49;100559.03;;;9.65;56.93
74561;BME280;62979;55.720;37.606;2022-09-09T02:51:30;100566.03;;;9.60;57.19
74561;BME280;62979;55.720;37.606;2022-09-09T02:54:12;100575.59;;;9.58;57.25
74561;BME280;62979;55.720;37.606;2022-09-09T02:56:51;100566.06;;;9.55;57.25
74561;BME280;62979;55.720;37.606;2022-09-09T02:59:21;100576.53;;;9.54;57.38
74561;BME280;62979;55.720;37.606;2022-09-09T03:01:50;100571.31;;;9.52;57.41
74561;BME280;62979;55.720;37.606;2022-09-09T03:04:18;100569.59;;;9.47;57.58
74561;BME280;62979;55.720;37.606;2022-09-09T03:06:45;100566.13;;;9.45;57.70
74561;BME280;62979;55.720;37.606;2022-09-09T03:09:12;100573.13;;;9.39;57.78
74561;BME280;62979;55.720;37.606;2022-09-09T03:11:39;100580.09;;;9.39;57.94
74561;BME280;62979;55.720;37.606;2022-09-09T03:14:06;100582.72;;;9.33;58.28
74561;BME280;62979;55.720;37.606;2022-09-09T03:16:33;100578.41;;;9.27;58.35
74561;BME280;62979;55.720;37.606;2022-09-09T03:19:02;100582.75;;;9.30;58.37
74561;BME280;62979;55.720;37.606;2022-09-09T03:21:29;100576.66;;;9.28;58.47
74561;BME280;62979;55.720;37.606;2022-09-09T03:23:57;100581.06;;;9.18;58.59
74561;BME280;62979;55.720;37.606;2022-09-09T03:26:24;100592.34;;;9.23;58.75
74561;BME280;62979;55.720;37.606;2022-09-09T03:28:51;100580.19;;;9.17;58.63
74561;BME280;62979;55.720;37.606;2022-09-09T03:31:18;100587.16;;;9.20;58.79
74561;BME280;62979;55.720;37.606;2022-09-09T03:33:46;100585.41;;;9.17;58.97
74561;BME280;62979;55.720;37.606;2022-09-09T03:36:14;100595.84;;;9.22;59.11
74561;BME280;62979;55.720;37.606;2022-09-09T03:38:41;100601.91;;;9.27;59.04
74561;BME280;62979;55.720;37.606;2022-09-09T03:41:08;100601.91;;;9.26;58.98
74561;BME280;62979;55.720;37.606;2022-09-09T03:43:35;100590.56;;;9.28;59.03
74561;BME280;62979;55.720;37.606;2022-09-09T03:46:03;100601.88;;;9.32;58.95
74561;BME280;62979;55.720;37.606;2022-09-09T03:48:30;100606.19;;;9.36;58.83
74561;BME280;62979;55.720;37.606;2022-09-09T03:50:57;100606.19;;;9.36;58.81
74561;BME280;62979;55.720;37.606;2022-09-09T03:53:28;100607.91;;;9.38;58.71
74561;BME280;62979;55.720;37.606;2022-09-09T03:55:56;100607.03;;;9.44;58.47
74561;BME280;62979;55.720;37.606;2022-09-09T03:58:26;100607.84;;;9.51;58.40
74561;BME280;62979;55.720;37.606;2022-09-09T04:00:55;100605.25;;;9.51;58.17
74561;BME280;62979;55.720;37.606;2022-09-09T04:03:24;100615.69;;;9.54;58.04
74561;BME280;62979;55.720;37.606;2022-09-09T04:05:52;100619.16;;;9.53;57.85
74561;BME280;62979;55.720;37.606;2022-09-09T04:08:19;100613.91;;;9.60;58.24
74561;BME280;62979;55.720;37.606;2022-09-09T04:10:49;100614.75;;;9.62;57.75
74561;BME280;62979;55.720;37.606;2022-09-09T04:13:17;100612.13;;;9.67;57.71
74561;BME280;62979;55.720;37.606;2022-09-09T04:15:50;100612.97;;;9.69;57.93
74561;BME280;62979;55.720;37.606;2022-09-09T04:18:18;100608.66;;;9.68;57.83
74561;BME280;62979;55.720;37.606;2022-09-09T04:20:46;100618.16;;;9.77;57.50
74561;BME280;62979;55.720;37.606;2022-09-09T04:23:14;100616.41;;;9.79;57.43
74561;BME280;62979;55.720;37.606;2022-09-09T04:25:44;100617.28;;;9.81;57.54
74561;BME280;62979;55.720;37.606;2022-09-09T04:28:13;100630.31;;;9.85;57.00
74561;BME280;62979;55.720;37.606;2022-09-09T04:30:41;100622.47;;;9.85;57.13
74561;BME280;62979;55.720;37.606;2022-09-09T04:33:09;100624.13;;;9.94;57.02
74561;BME280;62979;55.720;37.606;2022-09-09T04:35:37;100624.97;;;9.99;57.04
74561;BME280;62979;55.720;37.606;2022-09-09T04:38:06;100624.97;;;10.01;57.19
74561;BME280;62979;55.720;37.606;2022-09-09T04:40:35;100635.34;;;10.07;56.60
74561;BME280;62979;55.720;37.606;2022-09-09T04:43:03;100622.28;;;10.08;56.69
74561;BME280;62979;55.720;37.606;2022-09-09T04:45:32;100617.94;;;10.12;56.96
74561;BME280;62979;55.720;37.606;2022-09-09T04:47:59;100627.50;;;10.15;56.98
74561;BME280;62979;55.720;37.606;2022-09-09T04:50:26;100631.78;;;10.22;56.84
74561;BME280;62979;55.720;37.606;2022-09-09T04:52:53;100627.41;;;10.22;56.56
74561;BME280;62979;55.720;37.606;2022-09-09T04:55:21;100634.34;;;10.33;55.91
74561;BME280;62979;55.720;37.606;2022-09-09T04:57:48;100636.81;;;10.48;61.57
74561;BME280;62979;55.720;37.606;2022-09-09T05:00:15;100628.03;;;10.57;59.86
74561;BME280;62979;55.720;37.606;2022-09-09T05:02:46;100636.56;;;10.73;59.76
74561;BME280;62979;55.720;37.606;2022-09-09T05:05:13;100637.44;;;10.76;59.95
74561;BME280;62979;55.720;37.606;2022-09-09T05:07:40;100638.19;;;10.86;58.18
74561;BME280;62979;55.720;37.606;2022-09-09T05:10:08;100647.69;;;10.95;58.76
74561;BME280;62979;55.720;37.606;2022-09-09T05:12:36;100644.16;;;11.00;60.86
74561;BME280;62979;55.720;37.606;2022-09-09T05:15:03;100650.16;;;11.08;57.65
74561;BME280;62979;55.720;37.606;2022-09-09T05:17:31;100652.78;;;11.10;58.28
74561;BME280;62979;55.720;37.606;2022-09-09T05:20:01;100650.03;;;11.21;58.66
74561;BME280;62979;55.720;37.606;2022-09-09T05:22:29;100649.06;;;11.28;56.51
74561;BME280;62979;55.720;37.606;2022-09-09T05:24:56;100654.25;;;11.31;55.72
74561;BME280;62979;55.720;37.606;2022-09-09T05:27:23;100666.38;;;11.41;57.08
74561;BME280;62979;55.720;37.606;2022-09-09T05:29:50;100658.53;;;11.41;53.66
74561;BME280;62979;55.720;37.606;2022-09-09T05:32:17;100658.53;;;11.41;52.66
74561;BME280;62979;55.720;37.606;2022-09-09T05:34:44;100655.97;;;11.33;52.60
74561;BME280;62979;55.720;37.606;2022-09-09T05:37:13;100663.78;;;11.38;52.37
74561;BME280;62979;55.720;37.606;2022-09-09T05:39:42;100663.78;;;11.38;52.47
74561;BME280;62979;55.720;37.606;2022-09-09T05:42:09;100668.97;;;11.43;52.21
74561;BME280;62979;55.720;37.606;2022-09-09T05:44:36;100656.81;;;11.37;51.84
74561;BME280;62979;55.720;37.606;2022-09-09T05:47:03;100666.34;;;11.43;51.57
74561;BME280;62979;55.720;37.606;2022-09-09T05:49:30;100663.75;;;11.41;52.15
74561;BME280;62979;55.720;37.606;2022-09-09T05:51:57;100662.00;;;11.40;51.19
74561;BME280;62979;55.720;37.606;2022-09-09T05:54:26;100668.03;;;11.47;51.07
74561;BME280;62979;55.720;37.606;2022-09-09T05:56:56;100671.56;;;11.44;51.00
74561;BME280;62979;55.720;37.606;2022-09-09T05:59:23;100661.91;;;11.49;50.53
74561;BME280;62979;55.720;37.606;2022-09-09T06:01:50;100663.66;;;11.47;50.47
74561;BME280;62979;55.720;37.606;2022-09-09T06:04:17;100668.78;;;11.56;55.26
74561;BME280;62979;55.720;37.606;2022-09-09T06:06:47;100668.63;;;11.69;53.63
74561;BME280;62979;55.720;37.606;2022-09-09T06:09:14;100678.03;;;11.84;53.73
74561;BME280;62979;55.720;37.606;2022-09-09T06:11:43;100666.66;;;11.86;51.37
74561;BME280;62979;55.720;37.606;2022-09-09T06:14:11;100678.88;;;11.87;50.29
74561;BME280;62979;55.720;37.606;2022-09-09T06:16:38;100676.25;;;11.87;50.91
74561;BME280;62979;55.720;37.606;2022-09-09T06:19:07;100681.41;;;11.95;50.73
74561;BME280;62979;55.720;37.606;2022-09-09T06:21:35;100681.25;;;12.04;50.63
74561;BME280;62979;55.720;37.606;2022-09-09T06:24:04;100681.25;;;12.07;50.62
74561;BME280;62979;55.720;37.606;2022-09-09T06:26:33;100681.13;;;12.15;51.41
74561;BME280;62979;55.720;37.606;2022-09-09T06:29:04;100690.63;;;12.22;49.61
74561;BME280;62979;55.720;37.606;2022-09-09T06:31:33;100693.25;;;12.22;49.64
74561;BME280;62979;55.720;37.606;2022-09-09T06:34:04;100694.00;;;12.30;48.93
74561;BME280;62979;55.720;37.606;2022-09-09T06:36:34;100688.59;;;12.39;49.51
74561;BME280;62979;55.720;37.606;2022-09-09T06:39:04;100691.16;;;12.44;48.38
74561;BME280;62979;55.720;37.606;2022-09-09T06:41:32;100700.72;;;12.47;47.24
74561;BME280;62979;55.720;37.606;2022-09-09T06:43:59;100706.19;;;12.31;47.02
74561;BME280;62979;55.720;37.606;2022-09-09T06:46:30;100694.97;;;12.23;47.21
74561;BME280;62979;55.720;37.606;2022-09-09T06:48:58;100698.44;;;12.25;47.25
74561;BME280;62979;55.720;37.606;2022-09-09T06:51:26;100697.66;;;12.20;47.22
74561;BME280;62979;55.720;37.606;2022-09-09T06:53:56;100699.38;;;12.21;46.62
74561;BME280;62979;55.720;37.606;2022-09-09T06:56:25;100708.88;;;12.28;46.52
74561;BME280;62979;55.720;37.606;2022-09-09T06:58:56;100714.91;;;12.33;46.09
74561;BME280;62979;55.720;37.606;2022-09-09T07:01:26;100716.44;;;12.48;45.59
74561;BME280;62979;55.720;37.606;2022-09-09T07:03:58;100718.84;;;12.60;45.22
74561;BME280;62979;55.720;37.606;2022-09-09T07:06:27;100714.50;;;12.61;45.47
74561;BME280;62979;55.720;37.606;2022-09-09T07:08:57;100715.25;;;12.68;44.66
74561;BME280;62979;55.720;37.606;2022-09-09T07:11:28;100713.09;;;12.90;44.40
74561;BME280;62979;55.720;37.606;2022-09-09T07:13:57;100717.97;;;13.11;43.75
74561;BME280;62979;55.720;37.606;2022-09-09T07:16:26;100723.78;;;13.30;43.43
74561;BME280;62979;55.720;37.606;2022-09-09T07:18:55;100726.16;;;13.44;43.14
74561;BME280;62979;55.720;37.606;2022-09-09T07:21:24;100717.38;;;13.45;42.15
74561;BME280;62979;55.720;37.606;2022-09-09T07:23:53;100727.13;;;13.38;42.49
74561;BME280;62979;55.720;37.606;2022-09-09T07:26:22;100733.28;;;13.39;42.42
74561;BME280;62979;55.720;37.606;2022-09-09T07:28:50;100721.91;;;13.37;42.22
74561;BME280;62979;55.720;37.606;2022-09-09T07:31:19;100736.69;;;13.42;42.07
74561;BME280;62979;55.720;37.606;2022-09-09T07:33:47;100730.66;;;13.37;41.98
74561;BME280;62979;55.720;37.606;2022-09-09T07:36:18;100741.25;;;13.33;41.11
74561;BME280;62979;55.720;37.606;2022-09-09T07:38:48;100740.34;;;13.34;41.26
74561;BME280;62979;55.720;37.606;2022-09-09T07:41:19;100749.25;;;13.26;40.82
74561;BME280;62979;55.720;37.606;2022-09-09T07:43:49;100747.47;;;13.28;41.22
74561;BME280;62979;55.720;37.606;2022-09-09T07:46:18;100746.63;;;13.25;40.95
74561;BME280;62979;55.720;37.606;2022-09-09T07:48:47;100754.41;;;13.33;40.50
74561;BME280;62979;55.720;37.606;2022-09-09T07:51:20;100759.59;;;13.36;40.23
74561;BME280;62979;55.720;37.606;2022-09-09T07:53:51;100760.50;;;13.35;40.07
74561;BME280;62979;55.720;37.606;2022-09-09T07:56:19;100758.75;;;13.34;39.41
74561;BME280;62979;55.720;37.606;2022-09-09T07:58:48;100757.03;;;13.33;38.79
74561;BME280;62979;55.720;37.606;2022-09-09T08:01:20;100749.25;;;13.25;39.07
74561;BME280;62979;55.720;37.606;2022-09-09T08:03:53;100755.31;;;13.32;39.75
74561;BME280;62979;55.720;37.606;2022-09-09T08:06:26;100757.09;;;13.30;40.08
74561;BME280;62979;55.720;37.606;2022-09-09T08:08:54;100766.28;;;13.52;41.10
74561;BME280;62979;55.720;37.606;2022-09-09T08:11:23;100759.78;;;13.70;40.72
74561;BME280;62979;55.720;37.606;2022-09-09T08:13:52;100755.13;;;13.84;40.70
74561;BME280;62979;55.720;37.606;2022-09-09T08:16:21;100748.91;;;13.87;40.55
74561;BME280;62979;55.720;37.606;2022-09-09T08:18:49;100754.66;;;14.06;40.65
74561;BME280;62979;55.720;37.606;2022-09-09T08:21:18;100757.13;;;14.13;40.20
74561;BME280;62979;55.720;37.606;2022-09-09T08:23:49;100757.75;;;14.25;39.85
74561;BME280;62979;55.720;37.606;2022-09-09T08:26:20;100759.53;;;14.24;39.95
74561;BME280;62979;55.720;37.606;2022-09-09T08:28:50;100762.28;;;14.59;39.79
74561;BME280;62979;55.720;37.606;2022-09-09T08:31:20;100764.31;;;14.83;39.21
74561;BME280;62979;55.720;37.606;2022-09-09T08:33:49;100767.50;;;14.94;38.79
74561;BME280;62979;55.720;37.606;2022-09-09T08:36:17;100764.94;;;14.93;37.97
74561;BME280;62979;55.720;37.606;2022-09-09T08:38:49;100764.84;;;14.97;38.19
74561;BME280;62979;55.720;37.606;2022-09-09T08:41:39;100759.03;;;15.17;37.25
74561;BME280;62979;55.720;37.606;2022-09-09T08:44:29;100762.13;;;15.33;37.90
74561;BME280;62979;55.720;37.606;2022-09-09T08:47:14;100755.84;;;15.37;36.62
74561;BME280;62979;55.720;37.606;2022-09-09T08:50:01;100767.97;;;15.45;37.60
74561;BME280;62979;55.720;37.606;2022-09-09T08:52:48;100766.88;;;15.19;36.57
74561;BME280;62979;55.720;37.606;2022-09-09T08:55:26;100772.25;;;15.16;37.92
74561;BME280;62979;55.720;37.606;2022-09-09T08:58:06;100769.16;;;15.33;37.48
74561;BME280;62979;55.720;37.606;2022-09-09T09:00:45;100766.94;;;15.50;36.70
74561;BME280;62979;55.720;37.606;2022-09-09T09:03:30;100765.97;;;15.86;36.19
74561;BME280;62979;55.720;37.606;2022-09-09T09:06:09;100767.22;;;15.72;36.29
74561;BME280;62979;55.720;37.606;2022-09-09T09:08:54;100772.50;;;15.72;37.31
74561;BME280;62979;55.720;37.606;2022-09-09T09:11:35;100782.47;;;15.61;37.81
74561;BME280;62979;55.720;37.606;2022-09-09T09:14:09;100781.06;;;15.48;38.15
74561;BME280;62979;55.720;37.606;2022-09-09T09:16:48;100781.38;;;15.37;38.36
74561;BME280;62979;55.720;37.606;2022-09-09T09:19:19;100781.44;;;15.34;38.37
74561;BME280;62979;55.720;37.606;2022-09-09T09:21:51;100775.47;;;15.27;37.85
74561;BME280;62979;55.720;37.606;2022-09-09T09:24:27;100772.97;;;15.21;37.61
74561;BME280;62979;55.720;37.606;2022-09-09T09:27:12;100765.88;;;15.25;37.25
74561;BME280;62979;55.720;37.606;2022-09-09T09:29:42;100761.56;;;15.22;36.18
74561;BME280;62979;55.720;37.606;2022-09-09T09:32:14;100774.91;;;15.49;35.71
74561;BME280;62979;55.720;37.606;2022-09-09T09:34:49;100769.63;;;15.80;34.74
74561;BME280;62979;55.720;37.606;2022-09-09T09:37:26;100772.38;;;16.07;36.32
74561;BME280;62979;55.720;37.606;2022-09-09T09:39:55;100767.25;;;16.32;35.14
74561;BME280;62979;55.720;37.606;2022-09-09T09:42:24;100758.22;;;16.39;35.46
74561;BME280;62979;55.720;37.606;2022-09-09T09:44:51;100771.41;;;16.39;36.20
74561;BME280;62979;55.720;37.606;2022-09-09T09:47:20;100765.44;;;16.32;36.12
74561;BME280;62979;55.720;37.606;2022-09-09T09:49:52;100766.66;;;16.22;36.38
74561;BME280;62979;55.720;37.606;2022-09-09T09:52:22;100771.25;;;16.15;37.03
74561;BME280;62979;55.720;37.606;2022-09-09T09:54:52;100763.50;;;16.09;36.05
74561;BME280;62979;55.720;37.606;2022-09-09T09:57:26;100772.50;;;15.72;36.36
74561;BME280;62979;55.720;37.606;2022-09-09T10:00:04;100767.13;;;15.43;36.78
74561;BME280;62979;55.720;37.606;2022-09-09T10:02:41;100767.53;;;15.93;36.76
74561;BME280;62979;55.720;37.606;2022-09-09T10:05:13;100770.25;;;16.47;35.93
74561;BME280;62979;55.720;37.606;2022-09-09T10:07:42;100771.28;;;16.98;35.14
74561;BME280;62979;55.720;37.606;2022-09-09T10:10:15;100769.28;;;17.55;32.38
74561;BME280;62979;55.720;37.606;2022-09-09T10:12:55;100756.03;;;18.04;32.72
74561;BME280;62979;55.720;37.606;2022-09-09T10:15:35;100770.06;;;18.73;29.91
74561;BME280;62979;55.720;37.606;2022-09-09T10:18:22;100765.00;;;18.89;30.28
74561;BME280;62979;55.720;37.606;2022-09-09T10:21:12;100759.69;;;18.67;30.44
74561;BME280;62979;55.720;37.606;2022-09-09T10:24:09;100765.59;;;18.53;31.82
74561;BME280;62979;55.720;37.606;2022-09-09T10:26:55;100763.88;;;18.29;31.91
74561;BME280;62979;55.720;37.606;2022-09-09T10:29:44;100767.72;;;18.22;32.77
74561;BME280;62979;55.720;37.606;2022-09-09T10:32:45;100774.28;;;18.11;32.53
74561;BME280;62979;55.720;37.606;2022-09-09T10:35:29;100777.03;;;18.54;32.07
74561;BME280;62979;55.720;37.606;2022-09-09T10:38:17;100762.13;;;18.51;31.99
74561;BME280;62979;55.720;37.606;2022-09-09T10:41:05;100780.19;;;18.42;31.81
74561;BME280;62979;55.720;37.606;2022-09-09T10:47:00;100780.78;;;17.77;31.45
74561;BME280;62979;55.720;37.606;2022-09-09T10:49:59;100774.06;;;18.39;30.22
74561;BME280;62979;55.720;37.606;2022-09-09T10:52:45;100777.69;;;19.23;29.88
74561;BME280;62979;55.720;37.606;2022-09-09T10:55:24;100768.63;;;20.27;28.94
74561;BME280;62979;55.720;37.606;2022-09-09T10:57:57;100775.88;;;20.61;27.99
74561;BME280;62979;55.720;37.606;2022-09-09T11:00:34;100771.88;;;19.96;28.46
74561;BME280;62979;55.720;37.606;2022-09-09T11:03:11;100778.53;;;19.65;29.20
74561;BME280;62979;55.720;37.606;2022-09-09T11:05:49;100761.31;;;19.14;29.95
74561;BME280;62979;55.720;37.606;2022-09-09T11:08:21;100775.25;;;19.19;30.79
74561;BME280;62979;55.720;37.606;2022-09-09T11:10:55;100782.84;;;19.06;30.95
74561;BME280;62979;55.720;37.606;2022-09-09T11:13:34;100773.41;;;18.78;31.57
74561;BME280;62979;55.720;37.606;2022-09-09T11:16:17;100779.41;;;18.60;31.24
74561;BME280;62979;55.720;37.606;2022-09-09T11:18:56;100777.53;;;18.42;31.55
74561;BME280;62979;55.720;37.606;2022-09-09T11:21:29;100779.53;;;18.35;31.50
74561;BME280;62979;55.720;37.606;2022-09-09T11:24:04;100775.41;;;18.28;31.28
74561;BME280;62979;55.720;37.606;2022-09-09T11:26:42;100771.09;;;18.69;30.51
74561;BME280;62979;55.720;37.606;2022-09-09T11:29:45;100781.81;;;19.51;29.13
74561;BME280;62979;55.720;37.606;2022-09-09T11:32:37;100775.78;;;20.63;28.39
74561;BME280;62979;55.720;37.606;2022-09-09T11:35:28;100772.06;;;21.02;26.64
74561;BME280;62979;55.720;37.606;2022-09-09T11:38:13;100785.22;;;20.51;26.97
74561;BME280;62979;55.720;37.606;2022-09-09T11:40:45;100775.50;;;20.86;26.93
74561;BME280;62979;55.720;37.606;2022-09-09T11:43:17;100780.06;;;21.36;26.86
74561;BME280;62979;55.720;37.606;2022-09-09T11:45:51;100774.81;;;21.17;26.65
74561;BME280;62979;55.720;37.606;2022-09-09T11:48:23;100777.69;;;20.61;27.57
74561;BME280;62979;55.720;37.606;2022-09-09T11:51:02;100776.59;;;20.27;28.32
74561;BME280;62979;55.720;37.606;2022-09-09T11:53:33;100775.22;;;19.99;28.61
74561;BME280;62979;55.720;37.606;2022-09-09T11:56:10;100782.84;;;19.88;28.77
74561;BME280;62979;55.720;37.606;2022-09-09T11:58:42;100774.66;;;19.74;28.58
74561;BME280;62979;55.720;37.606;2022-09-09T12:01:28;100776.16;;;19.79;28.30
74561;BME280;62979;55.720;37.606;2022-09-09T12:04:32;100771.00;;;19.56;28.63
74561;BME280;62979;55.720;37.606;2022-09-09T12:07:20;100763.69;;;18.99;29.00
74561;BME280;62979;55.720;37.606;2022-09-09T12:09:56;100765.06;;;19.10;29.21
74561;BME280;62979;55.720;37.606;2022-09-09T12:12:32;100764.53;;;20.01;28.38
74561;BME280;62979;55.720;37.606;2022-09-09T12:15:16;100769.56;;;20.99;27.57
74561;BME280;62979;55.720;37.606;2022-09-09T12:17:54;100757.88;;;22.20;26.15
74561;BME280;62979;55.720;37.606;2022-09-09T12:20:29;100772.47;;;23.51;24.67
74561;BME280;62979;55.720;37.606;2022-09-09T12:23:18;100763.00;;;24.31;23.61
74561;BME280;62979;55.720;37.606;2022-09-09T12:26:23;100758.94;;;24.93;22.84
74561;BME280;62979;55.720;37.606;2022-09-09T12:29:14;100769.00;;;25.55;21.14
74561;BME280;62979;55.720;37.606;2022-09-09T12:31:55;100763.75;;;25.28;21.49
74561;BME280;62979;55.720;37.606;2022-09-09T12:34:35;100760.94;;;23.79;22.23
74561;BME280;62979;55.720;37.606;2022-09-09T12:37:14;100756.03;;;22.52;23.96
74561;BME280;62979;55.720;37.606;2022-09-09T12:39:53;100760.94;;;22.12;24.51
74561;BME280;62979;55.720;37.606;2022-09-09T12:42:24;100766.03;;;23.25;23.79
74561;BME280;62979;55.720;37.606;2022-09-09T12:44:56;100766.84;;;23.56;22.15
74561;BME280;62979;55.720;37.606;2022-09-09T12:47:30;100763.72;;;23.04;22.62
74561;BME280;62979;55.720;37.606;2022-09-09T12:50:15;100762.13;;;23.31;23.33
74561;BME280;62979;55.720;37.606;2022-09-09T12:52:47;100761.56;;;24.26;22.37
74561;BME280;62979;55.720;37.606;2022-09-09T12:55:20;100761.34;;;23.73;22.76
74561;BME280;62979;55.720;37.606;2022-09-09T12:57:51;100756.84;;;22.84;23.30
74561;BME280;62979;55.720;37.606;2022-09-09T13:00:20;100755.47;;;22.77;23.71
74561;BME280;62979;55.720;37.606;2022-09-09T13:02:51;100754.44;;;22.34;24.01
74561;BME280;62979;55.720;37.606;2022-09-09T13:05:22;100757.22;;;21.99;25.28
74561;BME280;62979;55.720;37.606;2022-09-09T13:07:50;100758.31;;;22.44;25.03
74561;BME280;62979;55.720;37.606;2022-09-09T13:10:26;100759.66;;;22.19;24.25
74561;BME280;62979;55.720;37.606;2022-09-09T13:12:56;100755.13;;;22.83;23.91
74561;BME280;62979;55.720;37.606;2022-09-09T13:15:26;100764.47;;;23.65;22.80
74561;BME280;62979;55.720;37.606;2022-09-09T13:17:57;100758.59;;;24.16;22.02
74561;BME280;62979;55.720;37.606;2022-09-09T13:20:26;100767.81;;;24.12;22.46